Time;durP1;ratioP1;P1;durP2;ratioP2;P2;SDS_P1;SDS_P2;PMS_P1;PMS_P2;Temp;Humidity;BMP_temperature;BMP_pressure;BME280_temperature;BME280_humidity;BME280_pressure;Samples;Min_cycle;Max_cycle;Signal;HPM_P1;HPM_P2
2023/02/03 00:02:05;;;;;;;2.60;0.90;;;26.00;37.30;;;;;;5049613;28;20179;-70
2023/02/03 00:04:32;;;;;;;3.77;1.23;;;26.10;37.50;;;;;;5050327;28;20263;-70
2023/02/03 00:07:00;;;;;;;5.53;1.50;;;26.00;36.20;;;;;;5049940;28;20322;-67
2023/02/03 00:09:27;;;;;;;6.10;1.30;;;25.90;37.40;;;;;;5050063;28;20211;-69
2023/02/03 00:11:54;;;;;;;10.03;1.30;;;26.20;36.70;;;;;;5050368;28;20180;-68
2023/02/03 00:14:21;;;;;;;5.10;1.10;;;25.90;37.00;;;;;;5047825;28;20199;-70
2023/02/03 00:16:49;;;;;;;7.00;1.50;;;26.00;36.80;;;;;;5045963;28;20562;-67
2023/02/03 00:19:16;;;;;;;4.60;1.27;;;26.30;35.70;;;;;;5050570;28;20188;-71
2023/02/03 00:21:44;;;;;;;5.77;1.60;;;26.20;36.60;;;;;;5047818;28;20187;-71
2023/02/03 00:24:12;;;;;;;9.60;1.50;;;26.50;36.10;;;;;;5048214;28;20187;-72
2023/02/03 00:26:43;;;;;;;6.63;1.30;;;26.30;36.00;;;;;;5050210;28;20192;-71
2023/02/03 00:29:10;;;;;;;6.30;1.10;;;26.60;36.30;;;;;;5049502;28;20285;-73
2023/02/03 00:31:38;;;;;;;8.87;1.40;;;26.60;35.70;;;;;;5048268;28;20691;-71
2023/02/03 00:34:05;;;;;;;7.73;1.27;;;26.80;35.20;;;;;;5049364;28;20578;-73
2023/02/03 00:36:32;;;;;;;3.50;1.13;;;26.60;35.50;;;;;;5049639;28;20188;-70
2023/02/03 00:39:01;;;;;;;3.00;1.10;;;26.50;35.50;;;;;;5047622;28;20554;-72
2023/02/03 00:41:30;;;;;;;4.03;1.10;;;26.70;35.70;;;;;;5045486;28;20557;-71
2023/02/03 00:43:57;;;;;;;7.77;1.07;;;26.90;35.00;;;;;;5050224;28;20199;-71
2023/02/03 00:46:25;;;;;;;5.43;1.13;;;27.10;35.80;;;;;;5050297;28;20698;-72
2023/02/03 00:48:52;;;;;;;6.07;1.10;;;27.20;34.90;;;;;;5050600;28;20266;-72
2023/02/03 00:51:20;;;;;;;5.53;1.33;;;27.00;35.20;;;;;;5050090;28;20183;-71
2023/02/03 00:53:48;;;;;;;3.23;1.10;;;26.90;34.90;;;;;;5050636;28;20338;-72
2023/02/03 00:56:15;;;;;;;3.87;1.57;;;27.00;34.80;;;;;;5053260;28;20215;-71
2023/02/03 00:58:43;;;;;;;5.13;1.07;;;27.00;35.10;;;;;;5054433;28;20192;-69
2023/02/03 01:01:10;;;;;;;5.07;1.20;;;27.10;35.80;;;;;;5054760;28;20184;-72
2023/02/03 01:03:38;;;;;;;6.53;1.50;;;27.10;35.60;;;;;;5053959;28;20184;-71
2023/02/03 01:06:13;;;;;;;4.67;1.33;;;27.00;35.20;;;;;;5049727;28;20207;-71
2023/02/03 01:08:41;;;;;;;3.37;1.03;;;27.00;35.40;;;;;;5054161;28;20221;-72
2023/02/03 01:11:10;;;;;;;4.57;1.30;;;27.10;34.90;;;;;;5054550;28;20188;-72
2023/02/03 01:13:38;;;;;;;7.30;1.23;;;27.30;35.30;;;;;;5053564;28;20191;-72
2023/02/03 01:16:11;;;;;;;5.43;1.10;;;27.70;34.30;;;;;;5052195;28;20254;-70
2023/02/03 01:18:38;;;;;;;4.23;1.00;;;27.40;33.90;;;;;;5053670;28;20207;-72
2023/02/03 01:21:08;;;;;;;6.40;1.37;;;27.30;34.30;;;;;;5048892;28;20187;-70
2023/02/03 01:23:37;;;;;;;7.23;1.20;;;27.60;34.40;;;;;;5054877;28;20543;-72
2023/02/03 01:26:15;;;;;;;4.50;1.03;;;27.70;34.00;;;;;;5047678;28;20188;-70
2023/02/03 01:28:42;;;;;;;2.53;1.00;;;27.90;33.90;;;;;;5053918;28;20188;-73
2023/02/03 01:31:15;;;;;;;3.53;1.10;;;27.90;34.10;;;;;;5053337;28;20196;-67
2023/02/03 01:33:47;;;;;;;3.37;1.10;;;27.90;33.90;;;;;;5054364;28;20218;-67
2023/02/03 01:36:18;;;;;;;5.67;0.90;;;28.20;34.20;;;;;;5054681;28;20212;-69
2023/02/03 01:38:46;;;;;;;5.60;1.00;;;28.20;33.90;;;;;;5053952;28;20187;-69
2023/02/03 01:41:20;;;;;;;8.73;1.13;;;28.10;33.80;;;;;;5054502;28;20176;-68
2023/02/03 01:43:50;;;;;;;6.03;1.30;;;28.40;34.40;;;;;;5054107;28;20578;-67
2023/02/03 01:46:35;;;;;;;4.77;1.40;;;28.70;33.20;;;;;;5054732;28;20222;-70
2023/02/03 01:49:07;;;;;;;5.13;1.13;;;28.60;33.50;;;;;;5051464;28;20203;-67
2023/02/03 01:51:37;;;;;;;6.00;1.00;;;27.90;34.30;;;;;;5051861;28;20630;-67
2023/02/03 01:54:07;;;;;;;3.10;0.87;;;28.30;34.60;;;;;;5051057;28;20216;-71
2023/02/03 01:56:38;;;;;;;2.73;1.10;;;28.30;33.70;;;;;;5053758;28;20180;-68
2023/02/03 01:59:06;;;;;;;5.33;1.13;;;28.30;33.80;;;;;;5051111;28;20182;-69
2023/02/03 02:01:34;;;;;;;5.27;1.57;;;28.50;33.60;;;;;;5053739;28;20180;-73
2023/02/03 02:04:03;;;;;;;4.17;1.20;;;28.40;33.80;;;;;;5049352;28;20230;-69
2023/02/03 02:06:31;;;;;;;1.90;0.80;;;28.30;34.40;;;;;;5053431;28;20678;-73
2023/02/03 02:08:59;;;;;;;4.30;1.13;;;28.40;33.40;;;;;;5054170;28;20211;-69
2023/02/03 02:11:27;;;;;;;2.37;1.00;;;28.60;33.60;;;;;;5053531;28;20223;-68
2023/02/03 02:13:59;;;;;;;4.07;1.27;;;28.90;33.20;;;;;;5053305;28;20642;-66
2023/02/03 02:17:04;;;;;;;3.50;0.93;;;28.90;32.80;;;;;;5053816;28;20195;-67
2023/02/03 02:19:58;;;;;;;5.97;1.40;;;29.00;33.30;;;;;;5051879;28;20179;-68
2023/02/03 02:22:46;;;;;;;9.47;1.87;;;29.30;33.30;;;;;;5053927;28;20245;-73
2023/02/03 02:25:54;;;;;;;4.97;1.00;;;29.60;32.60;;;;;;5053567;28;20631;-72
2023/02/03 02:28:33;;;;;;;7.43;1.20;;;29.50;32.60;;;;;;5008446;28;20200;-73
2023/02/03 02:31:12;;;;;;;2.57;1.07;;;29.50;32.30;;;;;;5011845;28;20643;-71
2023/02/03 02:34:11;;;;;;;5.47;1.20;;;29.80;31.80;;;;;;5038440;28;20567;-72
2023/02/03 02:36:47;;;;;;;6.00;1.30;;;30.00;32.20;;;;;;5052352;28;20204;-67
2023/02/03 02:39:26;;;;;;;6.50;1.10;;;30.30;31.40;;;;;;5051440;28;20597;-66
2023/02/03 02:42:01;;;;;;;4.33;1.10;;;30.50;31.30;;;;;;5050898;28;20271;-68
2023/02/03 02:45:14;;;;;;;4.10;0.87;;;30.50;31.80;;;;;;5051457;28;20554;-72
2023/02/03 02:47:42;;;;;;;10.13;1.17;;;30.40;30.90;;;;;;5043009;28;20187;-72
2023/02/03 02:50:23;;;;;;;5.30;0.97;;;30.30;31.90;;;;;;5053164;28;20183;-72
2023/02/03 02:52:52;;;;;;;5.53;1.25;;;30.80;31.20;;;;;;5052722;28;20187;-74
2023/02/03 02:55:27;;;;;;;7.10;1.27;;;30.70;31.80;;;;;;5052331;28;20223;-71
2023/02/03 02:57:58;;;;;;;4.28;1.17;;;30.60;30.80;;;;;;5053328;28;20179;-74
2023/02/03 03:00:29;;;;;;;6.20;1.33;;;30.70;31.10;;;;;;5052634;28;20623;-71
2023/02/03 03:02:56;;;;;;;5.65;1.05;;;30.60;31.20;;;;;;5046864;28;20206;-71
2023/02/03 03:05:25;;;;;;;4.83;1.17;;;30.70;31.10;;;;;;5052557;28;20537;-72
2023/02/03 03:08:03;;;;;;;2.90;1.20;;;30.90;30.80;;;;;;5053184;28;20638;-73
2023/02/03 03:10:31;;;;;;;5.38;1.15;;;31.20;30.30;;;;;;5051119;28;20606;-74
2023/02/03 03:13:04;;;;;;;3.00;1.13;;;31.20;30.80;;;;;;5046873;28;20194;-66
2023/02/03 03:15:34;;;;;;;5.43;1.17;;;31.20;30.60;;;;;;5052161;28;20220;-70
2023/02/03 03:18:10;;;;;;;4.95;1.33;;;30.90;30.20;;;;;;5046480;28;20225;-71
2023/02/03 03:20:41;;;;;;;4.53;1.17;;;31.50;29.80;;;;;;5052346;28;20548;-71
2023/02/03 03:23:19;;;;;;;3.85;1.20;;;31.40;29.50;;;;;;5048071;28;20180;-71
2023/02/03 03:25:53;;;;;;;8.55;1.10;;;31.30;30.20;;;;;;5052582;28;20211;-76
2023/02/03 03:28:35;;;;;;;3.58;1.20;;;31.40;29.80;;;;;;5052465;28;20195;-71
2023/02/03 03:31:03;;;;;;;4.10;1.38;;;32.30;29.40;;;;;;5049800;28;20175;-72
2023/02/03 03:33:30;;;;;;;5.75;1.30;;;32.40;29.20;;;;;;5051867;28;20184;-71
2023/02/03 03:36:02;;;;;;;5.20;0.90;;;32.40;28.60;;;;;;5052080;28;20749;-71
2023/02/03 03:39:01;;;;;;;7.45;1.30;;;32.40;28.60;;;;;;5051919;28;20188;-73
2023/02/03 03:41:54;;;;;;;6.53;0.93;;;32.40;28.40;;;;;;5042441;28;20686;-74
2023/02/03 03:44:29;;;;;;;4.40;0.98;;;32.30;28.70;;;;;;5050847;28;20192;-72
2023/02/03 03:47:23;;;;;;;4.18;0.90;;;32.80;28.20;;;;;;5048661;28;20187;-73
2023/02/03 03:49:53;;;;;;;3.78;0.95;;;33.10;28.30;;;;;;5048684;28;20179;-70
2023/02/03 03:52:24;;;;;;;2.85;0.90;;;32.60;28.40;;;;;;5051391;28;20190;-71
2023/02/03 03:54:55;;;;;;;4.00;1.20;;;32.60;28.20;;;;;;5047231;28;20318;-70
2023/02/03 03:57:52;;;;;;;3.80;1.00;;;32.30;28.50;;;;;;5049157;28;20186;-69
2023/02/03 04:00:22;;;;;;;3.58;1.23;;;32.80;27.80;;;;;;5046636;28;20204;-70
2023/02/03 04:02:54;;;;;;;4.32;1.00;;;33.20;27.50;;;;;;5049044;28;20724;-69
2023/02/03 04:05:22;;;;;;;8.32;1.30;;;34.00;26.40;;;;;;5050597;28;20180;-72
2023/02/03 04:07:50;;;;;;;7.85;1.15;;;34.60;26.90;;;;;;5049227;28;20238;-74
2023/02/03 04:10:32;;;;;;;5.10;0.90;;;34.70;29.00;;;;;;5050555;28;20219;-71
2023/02/03 04:13:00;;;;;;;5.22;1.02;;;32.90;31.90;;;;;;5050521;28;20634;-69
2023/02/03 04:15:28;;;;;;;4.25;1.20;;;32.30;33.50;;;;;;5050091;28;20542;-70
2023/02/03 04:17:56;;;;;;;3.95;1.20;;;32.30;33.20;;;;;;5064869;28;20188;-72
2023/02/03 04:20:24;;;;;;;3.60;1.33;;;30.90;34.70;;;;;;5050507;28;20191;-71
2023/02/03 04:22:52;;;;;;;7.53;1.05;;;30.00;36.60;;;;;;5050383;28;20579;-71
2023/02/03 04:25:20;;;;;;;4.47;1.30;;;28.90;37.90;;;;;;5048893;28;20275;-71
2023/02/03 04:27:47;;;;;;;8.10;1.33;;;27.90;40.10;;;;;;5049914;28;20654;-70
2023/02/03 04:30:17;;;;;;;13.23;1.17;;;27.60;40.70;;;;;;5049590;28;20190;-71
2023/02/03 04:32:46;;;;;;;3.17;1.27;;;27.60;41.20;;;;;;5049298;28;20195;-70
2023/02/03 04:35:14;;;;;;;4.33;1.20;;;27.30;41.80;;;;;;5050343;28;20215;-71
2023/02/03 04:37:41;;;;;;;6.87;1.00;;;27.20;43.10;;;;;;5050025;28;20615;-72
2023/02/03 04:40:10;;;;;;;4.07;1.13;;;27.50;42.70;;;;;;5050732;28;20187;-71
2023/02/03 04:42:39;;;;;;;3.00;0.90;;;27.70;41.60;;;;;;5050708;28;20184;-70
2023/02/03 04:45:08;;;;;;;4.70;1.30;;;27.60;41.30;;;;;;5047677;28;20643;-71
2023/02/03 04:47:36;;;;;;;3.50;1.00;;;28.00;41.70;;;;;;5049876;28;20601;-72
2023/02/03 04:50:04;;;;;;;6.33;1.40;;;28.30;40.70;;;;;;5050311;28;20184;-71
2023/02/03 04:52:32;;;;;;;4.20;1.10;;;28.80;39.10;;;;;;5048392;28;20210;-71
2023/02/03 04:54:59;;;;;;;6.10;1.07;;;28.40;39.60;;;;;;5049115;28;20234;-72
2023/02/03 04:57:28;;;;;;;5.73;1.20;;;29.00;39.20;;;;;;5048791;28;20176;-71
2023/02/03 04:59:55;;;;;;;6.37;1.13;;;30.20;36.40;;;;;;5050528;28;20211;-69
2023/02/03 05:02:23;;;;;;;4.30;1.13;;;30.40;36.00;;;;;;5050765;28;20183;-68
2023/02/03 05:04:50;;;;;;;2.70;0.80;;;30.40;36.50;;;;;;5051163;28;20650;-68
2023/02/03 05:07:18;;;;;;;3.55;1.15;;;29.80;36.80;;;;;;5049883;28;20176;-70
2023/02/03 05:09:45;;;;;;;5.35;0.82;;;30.30;36.30;;;;;;5050105;28;20513;-71
2023/02/03 05:12:12;;;;;;;6.63;1.17;;;30.40;37.20;;;;;;5050676;28;20183;-72
2023/02/03 05:14:40;;;;;;;4.43;1.13;;;30.70;35.80;;;;;;5049152;28;20569;-71
2023/02/03 05:17:07;;;;;;;6.72;1.00;;;30.80;35.70;;;;;;5050633;28;20263;-71
2023/02/03 05:19:35;;;;;;;5.90;1.23;;;30.50;36.30;;;;;;5047316;28;20176;-70
2023/02/03 05:22:02;;;;;;;6.35;1.23;;;30.10;37.60;;;;;;5049050;28;20220;-71
2023/02/03 05:24:30;;;;;;;3.88;0.90;;;29.60;39.00;;;;;;5048229;28;20314;-74
2023/02/03 05:26:57;;;;;;;3.38;0.95;;;29.60;39.50;;;;;;5050467;28;20185;-70
2023/02/03 05:29:25;;;;;;;10.48;1.60;;;29.30;39.50;;;;;;5046738;28;20176;-71
2023/02/03 05:31:52;;;;;;;7.18;1.15;;;29.70;38.80;;;;;;5050324;28;20184;-71
2023/02/03 05:34:19;;;;;;;3.42;1.20;;;30.00;38.40;;;;;;5047995;28;20184;-71
2023/02/03 05:36:47;;;;;;;3.17;0.98;;;29.90;37.30;;;;;;5049373;28;20191;-72
2023/02/03 05:39:14;;;;;;;4.65;1.17;;;30.30;37.10;;;;;;5048176;28;20206;-69
2023/02/03 05:41:53;;;;;;;5.28;1.13;;;31.00;36.20;;;;;;5049754;28;20203;-72
2023/02/03 05:44:26;;;;;;;3.50;1.25;;;31.90;34.70;;;;;;5052487;28;20222;-69
2023/02/03 05:46:56;;;;;;;7.28;1.25;;;31.80;34.10;;;;;;5049304;28;20195;-71
2023/02/03 05:49:24;;;;;;;6.45;1.17;;;31.10;34.90;;;;;;5053997;28;20180;-72
2023/02/03 05:51:53;;;;;;;6.45;1.33;;;31.70;34.80;;;;;;5046993;28;20662;-70
2023/02/03 05:54:21;;;;;;;3.05;0.90;;;31.30;34.60;;;;;;5052495;28;20220;-69
2023/02/03 05:56:48;;;;;;;11.45;1.60;;;30.80;35.90;;;;;;5035696;28;20229;-69
2023/02/03 05:59:16;;;;;;;4.25;1.48;;;30.50;37.20;;;;;;5053431;28;20180;-70
2023/02/03 06:01:43;;;;;;;4.15;1.10;;;30.30;38.00;;;;;;5053238;28;20194;-70
2023/02/03 06:04:10;;;;;;;4.43;1.30;;;29.80;38.70;;;;;;5052913;28;20203;-69
2023/02/03 06:06:38;;;;;;;5.55;1.65;;;30.60;37.50;;;;;;5052445;28;20776;-70
2023/02/03 06:09:07;;;;;;;3.33;1.10;;;30.30;38.20;;;;;;5052444;28;20184;-67
2023/02/03 06:11:35;;;;;;;4.85;1.25;;;30.40;38.10;;;;;;5053205;28;20179;-70
2023/02/03 06:14:03;;;;;;;5.07;1.20;;;30.90;36.50;;;;;;5051247;28;20303;-72
2023/02/03 06:16:30;;;;;;;4.15;1.50;;;30.80;37.50;;;;;;5051513;28;20220;-69
2023/02/03 06:18:59;;;;;;;4.60;1.35;;;31.40;36.80;;;;;;5052017;28;20274;-71
2023/02/03 06:21:27;;;;;;;3.70;1.10;;;32.30;35.90;;;;;;5050313;28;20188;-73
2023/02/03 06:23:55;;;;;;;4.25;1.02;;;31.30;35.70;;;;;;5050931;28;20180;-72
2023/02/03 06:26:23;;;;;;;5.60;1.58;;;31.50;35.70;;;;;;5052694;28;20275;-72
2023/02/03 06:28:51;;;;;;;8.27;1.58;;;31.90;35.60;;;;;;5052628;28;20277;-70
2023/02/03 06:31:18;;;;;;;6.85;1.60;;;31.30;36.50;;;;;;5050239;28;20184;-75
2023/02/03 06:33:46;;;;;;;8.32;1.40;;;30.40;37.70;;;;;;5052782;28;20631;-70
2023/02/03 06:36:13;;;;;;;9.63;1.33;;;29.70;39.10;;;;;;5052875;28;20207;-72
2023/02/03 06:38:40;;;;;;;4.63;1.25;;;28.60;40.80;;;;;;5052981;28;20191;-70
2023/02/03 06:41:08;;;;;;;4.10;1.02;;;28.90;41.30;;;;;;5052938;28;20268;-73
2023/02/03 06:43:35;;;;;;;3.17;1.10;;;29.30;40.40;;;;;;5051939;28;20229;-71
2023/02/03 06:46:03;;;;;;;12.82;1.45;;;30.60;37.90;;;;;;5050663;28;20689;-72
2023/02/03 06:48:30;;;;;;;7.53;1.30;;;30.30;37.40;;;;;;5052338;28;20786;-73
2023/02/03 06:50:57;;;;;;;6.00;1.48;;;30.20;37.90;;;;;;5050945;28;20250;-71
2023/02/03 06:53:25;;;;;;;4.65;1.30;;;29.20;39.70;;;;;;5051138;28;20838;-71
2023/02/03 06:55:52;;;;;;;9.70;1.35;;;28.10;41.80;;;;;;5047042;28;20821;-72
2023/02/03 06:58:19;;;;;;;3.27;1.30;;;27.20;43.60;;;;;;5045469;28;20179;-73
2023/02/03 07:00:47;;;;;;;3.87;1.40;;;26.70;44.50;;;;;;5047444;28;20514;-72
2023/02/03 07:03:14;;;;;;;8.00;1.40;;;26.70;44.80;;;;;;5051887;28;20178;-72
2023/02/03 07:05:41;;;;;;;4.00;1.27;;;26.50;45.10;;;;;;5049589;28;20195;-71
2023/02/03 07:08:09;;;;;;;4.10;1.20;;;26.50;45.20;;;;;;5052730;28;20176;-72
2023/02/03 07:10:36;;;;;;;8.30;1.57;;;26.40;45.60;;;;;;5052755;28;20245;-70
2023/02/03 07:13:05;;;;;;;4.97;1.90;;;26.10;46.20;;;;;;5052831;28;20687;-71
2023/02/03 07:15:33;;;;;;;7.20;1.70;;;26.20;46.40;;;;;;5051928;28;20254;-72
2023/02/03 07:18:00;;;;;;;6.63;1.60;;;25.90;46.90;;;;;;5050089;28;20655;-69
2023/02/03 07:20:28;;;;;;;13.27;1.47;;;25.80;47.10;;;;;;5052333;28;20188;-69
2023/02/03 07:22:56;;;;;;;6.03;1.87;;;26.30;46.00;;;;;;5052830;28;20179;-72
2023/02/03 07:25:25;;;;;;;5.17;1.30;;;26.40;45.40;;;;;;5051847;28;20186;-68
2023/02/03 07:27:52;;;;;;;3.97;1.50;;;26.40;45.80;;;;;;5050461;28;20192;-69
2023/02/03 07:30:20;;;;;;;9.07;2.10;;;26.40;45.50;;;;;;5051116;28;20190;-69
2023/02/03 07:32:51;;;;;;;7.07;1.80;;;26.20;46.00;;;;;;5051753;28;20337;-71
2023/02/03 07:35:19;;;;;;;3.40;1.60;;;26.20;46.00;;;;;;5048707;28;20289;-72
2023/02/03 07:37:47;;;;;;;4.83;1.40;;;26.30;45.20;;;;;;5051467;28;20804;-75
2023/02/03 07:40:15;;;;;;;5.27;1.47;;;26.70;44.20;;;;;;5051765;28;20579;-72
2023/02/03 07:42:47;;;;;;;7.70;1.97;;;27.30;43.50;;;;;;5050442;28;20260;-72
2023/02/03 07:45:16;;;;;;;5.50;1.63;;;27.60;42.20;;;;;;5051126;28;20183;-72
2023/02/03 07:47:44;;;;;;;9.30;1.73;;;28.00;41.20;;;;;;5050272;28;20252;-72
2023/02/03 07:50:12;;;;;;;5.37;1.20;;;27.30;42.70;;;;;;5050466;28;20182;-71
2023/02/03 07:52:39;;;;;;;5.37;1.67;;;27.00;43.10;;;;;;5051722;28;20658;-74
2023/02/03 07:55:07;;;;;;;3.50;1.37;;;26.40;44.50;;;;;;5053197;28;20226;-72
2023/02/03 07:57:36;;;;;;;6.10;1.60;;;26.10;45.60;;;;;;5049804;28;20195;-72
2023/02/03 08:00:05;;;;;;;7.13;1.57;;;25.80;45.90;;;;;;5049592;28;20199;-73
2023/02/03 08:02:32;;;;;;;4.60;1.53;;;25.60;46.60;;;;;;5049393;28;20192;-71
2023/02/03 08:04:59;;;;;;;5.40;1.20;;;25.40;46.30;;;;;;5048238;28;20184;-70
2023/02/03 08:07:26;;;;;;;4.47;1.40;;;25.30;46.50;;;;;;5049047;28;20530;-72
2023/02/03 08:09:54;;;;;;;5.33;1.70;;;25.30;46.90;;;;;;5049494;28;20194;-71
2023/02/03 08:12:21;;;;;;;5.03;1.77;;;25.00;48.20;;;;;;5047876;28;20184;-71
2023/02/03 08:14:48;;;;;;;3.70;1.60;;;25.00;48.20;;;;;;5048640;28;20220;-71
2023/02/03 08:17:16;;;;;;;6.33;1.83;;;25.00;48.10;;;;;;5050456;28;20195;-75
2023/02/03 08:19:43;;;;;;;7.10;1.63;;;24.70;48.50;;;;;;5048492;28;20634;-72
2023/02/03 08:22:20;;;;;;;6.07;1.57;;;24.80;48.70;;;;;;5049725;28;20187;-71
2023/02/03 08:24:48;;;;;;;7.83;1.50;;;24.70;48.50;;;;;;5050905;28;20312;-71
2023/02/03 08:27:18;;;;;;;7.80;1.50;;;24.70;48.30;;;;;;5050518;28;20198;-72
2023/02/03 08:29:46;;;;;;;7.40;1.60;;;24.80;48.10;;;;;;5048468;28;20564;-71
2023/02/03 08:32:16;;;;;;;5.43;1.57;;;24.60;47.90;;;;;;5048414;28;20183;-70
2023/02/03 08:34:44;;;;;;;7.23;1.70;;;24.50;48.20;;;;;;5048455;28;20215;-71
2023/02/03 08:37:13;;;;;;;4.50;1.60;;;24.50;48.60;;;;;;5046137;28;20191;-70
2023/02/03 08:39:41;;;;;;;4.37;1.40;;;24.30;48.10;;;;;;5049936;28;20194;-71
2023/02/03 08:42:08;;;;;;;3.80;1.93;;;24.30;48.00;;;;;;5050565;28;20215;-71
2023/02/03 08:44:37;;;;;;;6.53;2.27;;;24.10;48.10;;;;;;5050994;28;20176;-69
2023/02/03 08:47:05;;;;;;;5.60;2.30;;;24.20;48.00;;;;;;5049463;28;20187;-72
2023/02/03 08:49:34;;;;;;;5.33;2.53;;;24.10;47.70;;;;;;5049958;28;20172;-73
2023/02/03 08:52:02;;;;;;;4.47;1.83;;;24.00;47.80;;;;;;5050490;28;20207;-72
2023/02/03 08:54:29;;;;;;;5.73;2.07;;;24.00;48.10;;;;;;5050663;28;20251;-72
2023/02/03 08:56:57;;;;;;;7.57;2.00;;;24.00;48.40;;;;;;5055565;28;20194;-72
2023/02/03 08:59:24;;;;;;;6.50;2.03;;;23.90;48.90;;;;;;5050548;28;20298;-72
2023/02/03 09:01:52;;;;;;;7.50;2.33;;;23.80;49.30;;;;;;5051638;28;20190;-71
2023/02/03 09:04:23;;;;;;;3.10;1.70;;;23.80;49.70;;;;;;5049711;28;20681;-71
2023/02/03 09:06:55;;;;;;;8.13;2.17;;;23.80;50.10;;;;;;5048555;28;20192;-72
2023/02/03 09:09:25;;;;;;;4.20;2.10;;;23.80;50.30;;;;;;5049538;28;20187;-71
2023/02/03 09:11:59;;;;;;;5.57;2.03;;;23.80;50.20;;;;;;5052946;28;20214;-71
2023/02/03 09:14:30;;;;;;;6.20;2.10;;;23.80;50.40;;;;;;5048930;28;20198;-70
2023/02/03 09:16:57;;;;;;;4.73;1.70;;;23.70;50.70;;;;;;5053060;28;20188;-70
2023/02/03 09:19:25;;;;;;;3.97;1.60;;;23.80;50.70;;;;;;5052688;28;20199;-69
2023/02/03 09:21:52;;;;;;;6.93;2.10;;;23.70;50.90;;;;;;5050124;28;20669;-72
2023/02/03 09:24:21;;;;;;;6.20;1.83;;;23.60;50.30;;;;;;5052499;28;20658;-70
2023/02/03 09:26:48;;;;;;;4.57;2.00;;;23.60;50.20;;;;;;5053083;28;20192;-72
2023/02/03 09:29:15;;;;;;;8.50;2.57;;;23.50;50.20;;;;;;5051277;28;20199;-70
2023/02/03 09:31:45;;;;;;;7.73;2.17;;;23.50;50.60;;;;;;5053270;28;20575;-71
2023/02/03 09:34:13;;;;;;;7.53;2.00;;;23.50;50.60;;;;;;5051551;28;20218;-71
2023/02/03 09:36:40;;;;;;;7.27;2.20;;;23.50;50.40;;;;;;5053441;28;20229;-69
2023/02/03 09:39:07;;;;;;;6.40;1.90;;;23.50;50.40;;;;;;5057295;28;20604;-71
2023/02/03 09:42:08;;;;;;;7.10;2.07;;;23.60;50.70;;;;;;5060952;28;20270;-70
2023/02/03 09:44:58;;;;;;;6.57;1.87;;;23.50;50.20;;;;;;5053324;28;20179;-68
2023/02/03 09:47:28;;;;;;;8.17;2.10;;;23.60;50.20;;;;;;5052400;28;20210;-69
2023/02/03 09:50:00;;;;;;;6.50;2.20;;;23.60;50.00;;;;;;5054469;28;20184;-68
2023/02/03 09:52:40;;;;;;;5.67;1.60;;;23.40;49.60;;;;;;5054386;28;20266;-69
2023/02/03 09:55:29;;;;;;;3.50;1.60;;;23.40;49.30;;;;;;5052235;28;20690;-70
2023/02/03 09:58:19;;;;;;;8.10;1.83;;;23.50;49.40;;;;;;5054473;28;20727;-70
2023/02/03 10:01:08;;;;;;;5.13;1.70;;;23.40;49.10;;;;;;5053643;28;20199;-71
2023/02/03 10:03:47;;;;;;;7.10;1.77;;;23.40;49.00;;;;;;5054217;28;20241;-71
2023/02/03 10:06:32;;;;;;;8.77;2.23;;;23.50;49.00;;;;;;5053792;28;20647;-72
2023/02/03 10:09:11;;;;;;;4.87;1.77;;;23.60;49.00;;;;;;5051782;28;20188;-70
2023/02/03 10:11:44;;;;;;;4.63;1.57;;;23.60;49.40;;;;;;5052031;28;20184;-71
2023/02/03 10:14:33;;;;;;;10.10;2.50;;;23.50;49.70;;;;;;5053066;28;20657;-72
2023/02/03 10:17:17;;;;;;;4.67;1.80;;;23.50;49.90;;;;;;5051389;28;20613;-72
2023/02/03 10:20:06;;;;;;;4.50;1.80;;;23.50;49.90;;;;;;5053259;28;20564;-72
2023/02/03 10:22:48;;;;;;;8.50;1.60;;;23.60;50.20;;;;;;5049440;28;20187;-72
2023/02/03 10:25:33;;;;;;;6.13;1.77;;;23.50;50.10;;;;;;5052808;28;20175;-71
2023/02/03 10:28:08;;;;;;;5.63;1.40;;;23.50;49.80;;;;;;5052028;28;20619;-71
2023/02/03 10:30:46;;;;;;;6.47;1.97;;;23.60;50.00;;;;;;5052361;28;20206;-71
2023/02/03 10:33:16;;;;;;;5.67;1.50;;;23.60;49.90;;;;;;5051838;28;20215;-72
2023/02/03 10:35:56;;;;;;;7.00;1.63;;;23.60;49.80;;;;;;5052033;28;20299;-72
2023/02/03 10:38:32;;;;;;;8.00;1.67;;;23.70;49.90;;;;;;5048411;28;20168;-71
2023/02/03 10:40:59;;;;;;;6.20;1.53;;;23.70;49.70;;;;;;5052071;28;20573;-71
2023/02/03 10:43:51;;;;;;;3.40;1.30;;;23.80;49.80;;;;;;5051100;28;20653;-72
2023/02/03 10:46:39;;;;;;;4.17;1.70;;;23.90;49.20;;;;;;5053270;28;20172;-68
2023/02/03 10:49:08;;;;;;;5.93;1.53;;;23.80;48.70;;;;;;5051212;28;20206;-72
2023/02/03 10:51:38;;;;;;;5.07;1.43;;;23.80;48.90;;;;;;5052318;28;20183;-71
2023/02/03 10:54:25;;;;;;;11.40;1.83;;;23.80;48.90;;;;;;5052786;28;20629;-71
2023/02/03 10:56:53;;;;;;;5.43;1.37;;;23.80;49.10;;;;;;5050742;28;20222;-71
2023/02/03 10:59:31;;;;;;;5.87;1.60;;;23.80;48.60;;;;;;5051931;28;20259;-71
2023/02/03 11:01:59;;;;;;;3.90;1.37;;;23.80;48.60;;;;;;5053085;28;20191;-70
2023/02/03 11:04:31;;;;;;;4.30;1.40;;;23.80;48.30;;;;;;5053224;28;20184;-70
2023/02/03 11:07:02;;;;;;;4.80;1.40;;;23.80;48.70;;;;;;5054462;28;20549;-71
2023/02/03 11:09:41;;;;;;;5.20;1.20;;;23.80;48.90;;;;;;5054093;28;20191;-72
2023/02/03 11:12:15;;;;;;;7.10;1.70;;;23.80;48.60;;;;;;5052562;28;20187;-71
2023/02/03 11:14:45;;;;;;;3.77;1.23;;;23.80;48.70;;;;;;5050144;28;20203;-73
2023/02/03 11:17:26;;;;;;;5.73;1.50;;;23.80;48.60;;;;;;5053881;28;20188;-73
2023/02/03 11:20:12;;;;;;;6.40;1.50;;;23.80;48.80;;;;;;5052345;28;20179;-70
2023/02/03 11:22:44;;;;;;;6.03;1.20;;;23.80;49.00;;;;;;5051885;28;20184;-72
2023/02/03 11:25:25;;;;;;;3.80;1.63;;;23.80;48.80;;;;;;5051610;28;20213;-72
2023/02/03 11:27:55;;;;;;;6.33;1.43;;;23.80;48.70;;;;;;5050700;28;20691;-71
2023/02/03 11:30:31;;;;;;;6.90;1.50;;;23.80;48.80;;;;;;5052437;28;20210;-73
2023/02/03 11:33:01;;;;;;;4.43;1.47;;;23.80;47.80;;;;;;5052613;28;20194;-71
2023/02/03 11:35:32;;;;;;;4.90;1.30;;;23.80;48.20;;;;;;5071437;28;20211;-72
2023/02/03 11:38:01;;;;;;;3.57;1.60;;;23.80;48.00;;;;;;5054983;28;20211;-72
2023/02/03 11:40:33;;;;;;;5.70;1.50;;;23.80;47.40;;;;;;5053694;28;20190;-72
2023/02/03 11:43:23;;;;;;;5.00;1.20;;;23.80;46.90;;;;;;5055927;28;20196;-71
2023/02/03 11:45:58;;;;;;;7.67;1.50;;;23.70;47.50;;;;;;5055324;28;20196;-72
2023/02/03 11:48:32;;;;;;;3.17;1.07;;;23.80;47.30;;;;;;5058477;28;20178;-70
2023/02/03 11:51:18;;;;;;;9.17;1.50;;;23.80;47.00;;;;;;5056192;28;20209;-72
2023/02/03 11:54:04;;;;;;;4.43;1.13;;;23.80;47.10;;;;;;5045543;28;20306;-71
2023/02/03 11:56:55;;;;;;;7.37;1.30;;;23.80;47.30;;;;;;5051345;28;20218;-67
2023/02/03 11:59:34;;;;;;;5.20;1.17;;;23.90;47.10;;;;;;5051344;28;20184;-70
2023/02/03 12:02:34;;;;;;;4.13;1.17;;;23.80;46.80;;;;;;5058684;28;20552;-68
2023/02/03 12:05:39;;;;;;;5.10;1.23;;;23.90;47.50;;;;;;5053052;28;20180;-71
2023/02/03 12:08:24;;;;;;;3.13;1.10;;;23.80;47.20;;;;;;5050902;28;20210;-68
2023/02/03 12:11:16;;;;;;;3.00;0.97;;;23.80;47.80;;;;;;5047111;28;20635;-70
2023/02/03 12:14:04;;;;;;;4.37;1.73;;;23.80;48.60;;;;;;5051453;28;20531;-70
2023/02/03 12:16:59;;;;;;;9.60;2.17;;;23.80;47.70;;;;;;5049791;28;20295;-67
2023/02/03 12:19:56;;;;;;;4.47;1.47;;;23.60;49.60;;;;;;5048338;28;20262;-73
2023/02/03 12:22:28;;;;;;;7.50;1.60;;;23.60;52.60;;;;;;5048669;28;20214;-74
2023/02/03 12:25:17;;;;;;;11.90;1.90;;;23.40;55.70;;;;;;5050953;28;20184;-75
2023/02/03 12:27:51;;;;;;;4.80;1.60;;;23.20;61.90;;;;;;5050827;28;20226;-75
2023/02/03 12:30:46;;;;;;;7.53;1.53;;;22.80;60.10;;;;;;5050610;28;20230;-76
2023/02/03 12:33:53;;;;;;;7.43;1.40;;;22.80;62.90;;;;;;5057327;28;20187;-76
2023/02/03 12:36:44;;;;;;;5.13;1.47;;;22.70;64.70;;;;;;5030199;28;20227;-74
2023/02/03 12:39:17;;;;;;;11.23;1.50;;;22.50;65.40;;;;;;5047594;28;20188;-75
2023/02/03 12:41:58;;;;;;;3.67;1.30;;;22.50;65.90;;;;;;5051630;28;20188;-77
2023/02/03 12:44:53;;;;;;;4.77;1.20;;;22.40;65.90;;;;;;5051683;28;20192;-74
2023/02/03 12:47:41;;;;;;;7.33;1.60;;;22.50;68.40;;;;;;5047993;28;20704;-74
2023/02/03 12:50:18;;;;;;;6.07;1.30;;;22.40;70.30;;;;;;5049596;28;20176;-76
2023/02/03 12:52:56;;;;;;;8.83;1.67;;;22.50;71.30;;;;;;5058468;28;20179;-77
2023/02/03 12:55:49;;;;;;;7.10;1.50;;;22.50;71.70;;;;;;5053698;28;20955;-75
2023/02/03 12:58:27;;;;;;;4.23;1.53;;;22.50;72.30;;;;;;5055601;28;20583;-77
2023/02/03 13:01:04;;;;;;;5.20;1.60;;;22.50;69.30;;;;;;5051493;28;20669;-74
2023/02/03 13:03:31;;;;;;;8.00;1.90;;;22.40;66.70;;;;;;5055682;28;20339;-75
2023/02/03 13:06:16;;;;;;;7.30;1.70;;;22.40;63.60;;;;;;5055531;28;20273;-75
2023/02/03 13:09:10;;;;;;;5.43;1.53;;;22.40;63.90;;;;;;5056572;28;20241;-75
2023/02/03 13:11:48;;;;;;;4.50;1.73;;;22.30;63.10;;;;;;5046481;28;20196;-74
2023/02/03 13:14:39;;;;;;;8.97;3.07;;;22.30;63.30;;;;;;5060992;28;20191;-73
2023/02/03 13:17:23;;;;;;;7.23;1.67;;;22.30;64.70;;;;;;5055969;28;20204;-72